sensor_id;sensor_type;location;lat;lon;timestamp;temperature;humidity
21459;DHT22;10891;49.350;19.386;2023-04-29T00:00:44;8.40;99.90
21459;DHT22;10891;49.350;19.386;2023-04-29T00:03:12;8.40;99.90
21459;DHT22;10891;49.350;19.386;2023-04-29T00:05:39;8.50;99.90
21459;DHT22;10891;49.350;19.386;2023-04-29T00:08:06;8.50;99.90
21459;DHT22;10891;49.350;19.386;2023-04-29T00:10:33;8.60;99.90
21459;DHT22;10891;49.350;19.386;2023-04-29T00:13:01;8.60;99.90
21459;DHT22;10891;49.350;19.386;2023-04-29T00:15:27;8.60;99.90
21459;DHT22;10891;49.350;19.386;2023-04-29T00:17:54;8.60;99.90
21459;DHT22;10891;49.350;19.386;2023-04-29T00:20:23;8.60;99.90
21459;DHT22;10891;49.350;19.386;2023-04-29T00:22:49;8.50;99.90
21459;DHT22;10891;49.350;19.386;2023-04-29T00:25:16;8.50;99.90
21459;DHT22;10891;49.350;19.386;2023-04-29T00:27:43;8.50;99.90
21459;DHT22;10891;49.350;19.386;2023-04-29T00:30:10;8.50;99.90
21459;DHT22;10891;49.350;19.386;2023-04-29T00:32:37;8.40;99.90
21459;DHT22;10891;49.350;19.386;2023-04-29T00:35:05;8.40;99.90
21459;DHT22;10891;49.350;19.386;2023-04-29T00:37:33;8.40;99.90
21459;DHT22;10891;49.350;19.386;2023-04-29T00:40:00;8.30;99.90
21459;DHT22;10891;49.350;19.386;2023-04-29T00:42:28;8.30;99.90
21459;DHT22;10891;49.350;19.386;2023-04-29T00:44:57;8.30;99.90
21459;DHT22;10891;49.350;19.386;2023-04-29T00:47:24;8.30;99.90
21459;DHT22;10891;49.350;19.386;2023-04-29T00:49:51;8.20;99.90
21459;DHT22;10891;49.350;19.386;2023-04-29T00:52:18;8.20;99.90
21459;DHT22;10891;49.350;19.386;2023-04-29T00:54:46;8.10;99.90
21459;DHT22;10891;49.350;19.386;2023-04-29T00:57:14;8.10;99.90
21459;DHT22;10891;49.350;19.386;2023-04-29T00:59:40;8.10;99.90
21459;DHT22;10891;49.350;19.386;2023-04-29T01:02:10;8.10;99.90
21459;DHT22;10891;49.350;19.386;2023-04-29T01:04:37;8.10;99.90
21459;DHT22;10891;49.350;19.386;2023-04-29T01:07:11;8.10;99.90
21459;DHT22;10891;49.350;19.386;2023-04-29T01:09:51;8.00;99.90
21459;DHT22;10891;49.350;19.386;2023-04-29T01:12:20;8.10;99.90
21459;DHT22;10891;49.350;19.386;2023-04-29T01:15:01;8.10;99.90
21459;DHT22;10891;49.350;19.386;2023-04-29T01:17:35;8.00;99.90
21459;DHT22;10891;49.350;19.386;2023-04-29T01:20:03;8.00;99.90
21459;DHT22;10891;49.350;19.386;2023-04-29T01:22:31;8.00;99.90
21459;DHT22;10891;49.350;19.386;2023-04-29T01:25:00;8.10;99.90
21459;DHT22;10891;49.350;19.386;2023-04-29T01:27:29;8.10;99.90
21459;DHT22;10891;49.350;19.386;2023-04-29T01:30:01;8.10;99.90
21459;DHT22;10891;49.350;19.386;2023-04-29T01:32:40;8.00;99.90
21459;DHT22;10891;49.350;19.386;2023-04-29T01:35:19;8.10;99.90
21459;DHT22;10891;49.350;19.386;2023-04-29T01:37:54;8.10;99.90
21459;DHT22;10891;49.350;19.386;2023-04-29T01:40:25;8.10;99.90
21459;DHT22;10891;49.350;19.386;2023-04-29T01:43:00;8.10;99.90
21459;DHT22;10891;49.350;19.386;2023-04-29T01:45:28;8.10;99.90
21459;DHT22;10891;49.350;19.386;2023-04-29T01:47:57;8.00;99.90
21459;DHT22;10891;49.350;19.386;2023-04-29T01:50:24;8.00;99.90
21459;DHT22;10891;49.350;19.386;2023-04-29T01:52:51;8.00;99.90
21459;DHT22;10891;49.350;19.386;2023-04-29T01:55:18;8.00;99.90
21459;DHT22;10891;49.350;19.386;2023-04-29T01:57:47;7.90;99.90
21459;DHT22;10891;49.350;19.386;2023-04-29T02:00:14;7.90;99.90
21459;DHT22;10891;49.350;19.386;2023-04-29T02:02:41;8.00;99.90
21459;DHT22;10891;49.350;19.386;2023-04-29T02:05:09;7.90;99.90
21459;DHT22;10891;49.350;19.386;2023-04-29T02:07:36;7.90;99.90
21459;DHT22;10891;49.350;19.386;2023-04-29T02:10:03;7.90;99.90
21459;DHT22;10891;49.350;19.386;2023-04-29T02:12:30;7.90;99.90
21459;DHT22;10891;49.350;19.386;2023-04-29T02:14:58;7.90;99.90
21459;DHT22;10891;49.350;19.386;2023-04-29T02:17:25;7.90;99.90
21459;DHT22;10891;49.350;19.386;2023-04-29T02:19:52;7.90;99.90
21459;DHT22;10891;49.350;19.386;2023-04-29T02:22:20;7.90;99.90
21459;DHT22;10891;49.350;19.386;2023-04-29T02:24:47;7.90;99.90
21459;DHT22;10891;49.350;19.386;2023-04-29T02:27:13;7.90;99.90
21459;DHT22;10891;49.350;19.386;2023-04-29T02:29:40;7.90;99.90
21459;DHT22;10891;49.350;19.386;2023-04-29T02:32:09;8.00;99.90
21459;DHT22;10891;49.350;19.386;2023-04-29T02:34:36;8.00;99.90
21459;DHT22;10891;49.350;19.386;2023-04-29T02:37:02;8.00;99.90
21459;DHT22;10891;49.350;19.386;2023-04-29T02:39:30;7.90;99.90
21459;DHT22;10891;49.350;19.386;2023-04-29T02:41:57;7.90;99.90
21459;DHT22;10891;49.350;19.386;2023-04-29T02:44:24;7.90;99.90
21459;DHT22;10891;49.350;19.386;2023-04-29T02:46:51;8.00;99.90
21459;DHT22;10891;49.350;19.386;2023-04-29T02:49:19;8.00;99.90
21459;DHT22;10891;49.350;19.386;2023-04-29T02:51:46;8.00;99.90
21459;DHT22;10891;49.350;19.386;2023-04-29T02:54:14;8.00;99.90
21459;DHT22;10891;49.350;19.386;2023-04-29T02:56:41;8.00;99.90
21459;DHT22;10891;49.350;19.386;2023-04-29T02:59:08;8.00;99.90
21459;DHT22;10891;49.350;19.386;2023-04-29T03:01:35;7.90;99.90
21459;DHT22;10891;49.350;19.386;2023-04-29T03:04:04;8.00;99.90
21459;DHT22;10891;49.350;19.386;2023-04-29T03:06:32;7.90;99.90
21459;DHT22;10891;49.350;19.386;2023-04-29T03:08:59;7.90;99.90
21459;DHT22;10891;49.350;19.386;2023-04-29T03:11:26;7.80;99.90
21459;DHT22;10891;49.350;19.386;2023-04-29T03:13:53;7.90;99.90
21459;DHT22;10891;49.350;19.386;2023-04-29T03:16:21;7.80;99.90
21459;DHT22;10891;49.350;19.386;2023-04-29T03:18:47;7.80;99.90
21459;DHT22;10891;49.350;19.386;2023-04-29T03:21:14;7.90;99.90
21459;DHT22;10891;49.350;19.386;2023-04-29T03:23:43;7.80;99.90
21459;DHT22;10891;49.350;19.386;2023-04-29T03:26:10;7.90;99.90
21459;DHT22;10891;49.350;19.386;2023-04-29T03:28:37;7.80;99.90
21459;DHT22;10891;49.350;19.386;2023-04-29T03:31:04;7.90;99.90
21459;DHT22;10891;49.350;19.386;2023-04-29T03:33:31;7.80;99.90
21459;DHT22;10891;49.350;19.386;2023-04-29T03:35:58;7.90;99.90
21459;DHT22;10891;49.350;19.386;2023-04-29T03:38:24;7.90;99.90
21459;DHT22;10891;49.350;19.386;2023-04-29T03:40:53;7.90;99.90
21459;DHT22;10891;49.350;19.386;2023-04-29T03:43:20;7.80;99.90
21459;DHT22;10891;49.350;19.386;2023-04-29T03:45:46;7.90;99.90
21459;DHT22;10891;49.350;19.386;2023-04-29T03:48:13;7.90;99.90
21459;DHT22;10891;49.350;19.386;2023-04-29T03:50:40;7.90;99.90
21459;DHT22;10891;49.350;19.386;2023-04-29T03:53:07;7.90;99.90
21459;DHT22;10891;49.350;19.386;2023-04-29T03:55:34;7.90;99.90
21459;DHT22;10891;49.350;19.386;2023-04-29T03:58:02;7.90;99.90
21459;DHT22;10891;49.350;19.386;2023-04-29T04:00:29;7.90;99.90
21459;DHT22;10891;49.350;19.386;2023-04-29T04:02:57;7.90;99.90
21459;DHT22;10891;49.350;19.386;2023-04-29T04:05:24;8.00;99.90
21459;DHT22;10891;49.350;19.386;2023-04-29T04:07:51;8.00;99.90
21459;DHT22;10891;49.350;19.386;2023-04-29T04:10:18;8.10;99.90
21459;DHT22;10891;49.350;19.386;2023-04-29T04:12:45;8.10;99.90
21459;DHT22;10891;49.350;19.386;2023-04-29T04:15:14;8.10;99.90
21459;DHT22;10891;49.350;19.386;2023-04-29T04:17:41;8.10;99.90
21459;DHT22;10891;49.350;19.386;2023-04-29T04:20:09;8.10;99.90
21459;DHT22;10891;49.350;19.386;2023-04-29T04:22:36;8.10;99.90
21459;DHT22;10891;49.350;19.386;2023-04-29T04:25:04;8.10;99.90
21459;DHT22;10891;49.350;19.386;2023-04-29T04:27:31;8.10;99.90
21459;DHT22;10891;49.350;19.386;2023-04-29T04:29:58;8.10;99.90
21459;DHT22;10891;49.350;19.386;2023-04-29T04:32:27;8.10;99.90
21459;DHT22;10891;49.350;19.386;2023-04-29T04:34:54;8.10;99.90
21459;DHT22;10891;49.350;19.386;2023-04-29T04:37:21;8.20;99.90
21459;DHT22;10891;49.350;19.386;2023-04-29T04:39:47;8.20;99.90
21459;DHT22;10891;49.350;19.386;2023-04-29T04:42:14;8.30;99.90
21459;DHT22;10891;49.350;19.386;2023-04-29T04:44:41;8.20;99.90
21459;DHT22;10891;49.350;19.386;2023-04-29T04:47:08;8.30;99.90
21459;DHT22;10891;49.350;19.386;2023-04-29T04:49:37;8.30;99.90
21459;DHT22;10891;49.350;19.386;2023-04-29T04:52:04;8.40;99.90
21459;DHT22;10891;49.350;19.386;2023-04-29T04:54:32;8.50;99.90
21459;DHT22;10891;49.350;19.386;2023-04-29T04:57:00;8.50;99.90
21459;DHT22;10891;49.350;19.386;2023-04-29T04:59:30;8.50;99.90
21459;DHT22;10891;49.350;19.386;2023-04-29T05:01:58;8.50;99.90
21459;DHT22;10891;49.350;19.386;2023-04-29T05:04:25;8.50;99.90
21459;DHT22;10891;49.350;19.386;2023-04-29T05:06:53;8.40;99.90
21459;DHT22;10891;49.350;19.386;2023-04-29T05:09:20;8.40;99.90
21459;DHT22;10891;49.350;19.386;2023-04-29T05:11:47;8.30;99.90
21459;DHT22;10891;49.350;19.386;2023-04-29T05:14:14;8.40;99.90
21459;DHT22;10891;49.350;19.386;2023-04-29T05:16:41;8.40;99.90
21459;DHT22;10891;49.350;19.386;2023-04-29T05:19:08;8.40;99.90
21459;DHT22;10891;49.350;19.386;2023-04-29T05:21:35;8.40;99.90
21459;DHT22;10891;49.350;19.386;2023-04-29T05:24:03;8.40;99.90
21459;DHT22;10891;49.350;19.386;2023-04-29T05:26:31;8.40;99.90
21459;DHT22;10891;49.350;19.386;2023-04-29T05:28:58;8.50;99.90
21459;DHT22;10891;49.350;19.386;2023-04-29T05:31:25;8.50;99.90
21459;DHT22;10891;49.350;19.386;2023-04-29T05:33:54;8.50;99.90
21459;DHT22;10891;49.350;19.386;2023-04-29T05:36:21;8.50;99.90
21459;DHT22;10891;49.350;19.386;2023-04-29T05:38:48;8.60;99.90
21459;DHT22;10891;49.350;19.386;2023-04-29T05:41:17;8.70;99.90
21459;DHT22;10891;49.350;19.386;2023-04-29T05:43:44;8.80;99.90
21459;DHT22;10891;49.350;19.386;2023-04-29T05:46:12;8.90;99.90
21459;DHT22;10891;49.350;19.386;2023-04-29T05:48:39;9.00;99.90
21459;DHT22;10891;49.350;19.386;2023-04-29T05:51:06;9.00;99.90
21459;DHT22;10891;49.350;19.386;2023-04-29T05:53:33;9.10;99.90
21459;DHT22;10891;49.350;19.386;2023-04-29T05:56:03;9.30;99.90
21459;DHT22;10891;49.350;19.386;2023-04-29T05:58:34;9.40;99.90
21459;DHT22;10891;49.350;19.386;2023-04-29T06:01:01;9.60;99.90
21459;DHT22;10891;49.350;19.386;2023-04-29T06:03:29;9.70;99.90
21459;DHT22;10891;49.350;19.386;2023-04-29T06:05:56;9.80;99.90
21459;DHT22;10891;49.350;19.386;2023-04-29T06:08:23;9.80;99.90
21459;DHT22;10891;49.350;19.386;2023-04-29T06:10:51;9.80;99.90
21459;DHT22;10891;49.350;19.386;2023-04-29T06:13:18;9.70;99.90
21459;DHT22;10891;49.350;19.386;2023-04-29T06:15:47;9.60;99.90
21459;DHT22;10891;49.350;19.386;2023-04-29T06:18:15;9.50;99.90
21459;DHT22;10891;49.350;19.386;2023-04-29T06:20:42;9.60;99.90
21459;DHT22;10891;49.350;19.386;2023-04-29T06:23:09;9.70;99.90
21459;DHT22;10891;49.350;19.386;2023-04-29T06:25:37;9.70;99.90
21459;DHT22;10891;49.350;19.386;2023-04-29T06:28:05;9.60;99.90
21459;DHT22;10891;49.350;19.386;2023-04-29T06:30:33;9.60;99.90
21459;DHT22;10891;49.350;19.386;2023-04-29T06:33:02;9.60;99.90
21459;DHT22;10891;49.350;19.386;2023-04-29T06:35:43;9.70;99.90
21459;DHT22;10891;49.350;19.386;2023-04-29T06:38:10;9.90;99.90
21459;DHT22;10891;49.350;19.386;2023-04-29T06:40:38;10.10;99.90
21459;DHT22;10891;49.350;19.386;2023-04-29T06:43:05;10.20;99.90
21459;DHT22;10891;49.350;19.386;2023-04-29T06:45:33;10.50;99.90
21459;DHT22;10891;49.350;19.386;2023-04-29T06:48:01;10.80;99.90
21459;DHT22;10891;49.350;19.386;2023-04-29T06:50:29;11.50;99.90
21459;DHT22;10891;49.350;19.386;2023-04-29T06:52:56;12.00;99.90
21459;DHT22;10891;49.350;19.386;2023-04-29T06:55:23;12.80;99.90
21459;DHT22;10891;49.350;19.386;2023-04-29T06:57:51;13.20;99.90
21459;DHT22;10891;49.350;19.386;2023-04-29T07:00:19;13.80;99.90
21459;DHT22;10891;49.350;19.386;2023-04-29T07:02:47;13.90;99.90
21459;DHT22;10891;49.350;19.386;2023-04-29T07:05:15;14.50;99.90
21459;DHT22;10891;49.350;19.386;2023-04-29T07:07:44;14.80;99.90
21459;DHT22;10891;49.350;19.386;2023-04-29T07:10:12;14.80;99.90
21459;DHT22;10891;49.350;19.386;2023-04-29T07:12:39;15.10;99.90
21459;DHT22;10891;49.350;19.386;2023-04-29T07:15:07;15.00;99.90
21459;DHT22;10891;49.350;19.386;2023-04-29T07:17:35;14.80;99.90
21459;DHT22;10891;49.350;19.386;2023-04-29T07:20:03;14.30;99.90
21459;DHT22;10891;49.350;19.386;2023-04-29T07:22:31;13.80;99.90
21459;DHT22;10891;49.350;19.386;2023-04-29T07:24:58;13.40;99.90
21459;DHT22;10891;49.350;19.386;2023-04-29T07:27:26;13.20;99.90
21459;DHT22;10891;49.350;19.386;2023-04-29T07:29:54;12.90;99.90
21459;DHT22;10891;49.350;19.386;2023-04-29T07:32:21;12.70;99.90
21459;DHT22;10891;49.350;19.386;2023-04-29T07:34:48;12.30;99.90
21459;DHT22;10891;49.350;19.386;2023-04-29T07:37:17;12.20;99.90
21459;DHT22;10891;49.350;19.386;2023-04-29T07:39:45;12.10;99.90
21459;DHT22;10891;49.350;19.386;2023-04-29T07:42:12;11.60;99.90
21459;DHT22;10891;49.350;19.386;2023-04-29T07:44:39;11.40;99.90
21459;DHT22;10891;49.350;19.386;2023-04-29T07:47:07;11.30;99.90
21459;DHT22;10891;49.350;19.386;2023-04-29T07:49:34;11.10;99.90
21459;DHT22;10891;49.350;19.386;2023-04-29T07:52:01;11.10;99.90
21459;DHT22;10891;49.350;19.386;2023-04-29T07:54:28;11.20;99.90
21459;DHT22;10891;49.350;19.386;2023-04-29T07:56:58;11.10;99.90
21459;DHT22;10891;49.350;19.386;2023-04-29T07:59:26;11.20;99.90
21459;DHT22;10891;49.350;19.386;2023-04-29T08:01:53;11.30;99.90
21459;DHT22;10891;49.350;19.386;2023-04-29T08:04:20;11.50;99.90
21459;DHT22;10891;49.350;19.386;2023-04-29T08:06:48;11.70;99.90
21459;DHT22;10891;49.350;19.386;2023-04-29T08:09:15;11.80;99.90
21459;DHT22;10891;49.350;19.386;2023-04-29T08:11:42;12.00;99.90
21459;DHT22;10891;49.350;19.386;2023-04-29T08:14:10;12.00;99.90
21459;DHT22;10891;49.350;19.386;2023-04-29T08:16:38;12.30;99.90
21459;DHT22;10891;49.350;19.386;2023-04-29T08:19:05;12.30;99.90
21459;DHT22;10891;49.350;19.386;2023-04-29T08:21:33;12.20;99.90
21459;DHT22;10891;49.350;19.386;2023-04-29T08:24:00;12.00;99.90
21459;DHT22;10891;49.350;19.386;2023-04-29T08:26:28;11.80;99.90
21459;DHT22;10891;49.350;19.386;2023-04-29T08:28:55;11.70;99.90
21459;DHT22;10891;49.350;19.386;2023-04-29T08:31:23;11.90;99.90
21459;DHT22;10891;49.350;19.386;2023-04-29T08:33:50;12.20;99.90
21459;DHT22;10891;49.350;19.386;2023-04-29T08:36:20;12.50;99.90
21459;DHT22;10891;49.350;19.386;2023-04-29T08:38:47;12.50;99.90
21459;DHT22;10891;49.350;19.386;2023-04-29T08:41:17;12.90;99.90
21459;DHT22;10891;49.350;19.386;2023-04-29T08:43:44;13.30;99.90
21459;DHT22;10891;49.350;19.386;2023-04-29T08:46:12;13.60;99.90
21459;DHT22;10891;49.350;19.386;2023-04-29T08:48:43;13.60;99.90
21459;DHT22;10891;49.350;19.386;2023-04-29T08:51:11;14.10;99.90
21459;DHT22;10891;49.350;19.386;2023-04-29T08:53:38;14.80;99.90
21459;DHT22;10891;49.350;19.386;2023-04-29T08:56:10;15.20;99.90
21459;DHT22;10891;49.350;19.386;2023-04-29T08:58:40;15.60;99.90
21459;DHT22;10891;49.350;19.386;2023-04-29T09:01:09;15.80;99.90
21459;DHT22;10891;49.350;19.386;2023-04-29T09:03:43;15.90;99.90
21459;DHT22;10891;49.350;19.386;2023-04-29T09:06:11;16.00;99.90
21459;DHT22;10891;49.350;19.386;2023-04-29T09:08:39;16.50;99.90
21459;DHT22;10891;49.350;19.386;2023-04-29T09:11:08;16.50;99.90
21459;DHT22;10891;49.350;19.386;2023-04-29T09:13:36;16.50;99.90
21459;DHT22;10891;49.350;19.386;2023-04-29T09:16:04;16.30;99.90
21459;DHT22;10891;49.350;19.386;2023-04-29T09:18:45;16.50;99.90
21459;DHT22;10891;49.350;19.386;2023-04-29T09:21:14;16.50;99.90
21459;DHT22;10891;49.350;19.386;2023-04-29T09:23:42;16.30;99.90
21459;DHT22;10891;49.350;19.386;2023-04-29T09:26:10;16.20;99.90
21459;DHT22;10891;49.350;19.386;2023-04-29T09:28:37;16.10;99.90
21459;DHT22;10891;49.350;19.386;2023-04-29T09:31:08;16.00;99.90
21459;DHT22;10891;49.350;19.386;2023-04-29T09:33:53;16.30;99.90
21459;DHT22;10891;49.350;19.386;2023-04-29T09:36:39;16.60;99.90
21459;DHT22;10891;49.350;19.386;2023-04-29T09:39:11;16.40;99.90
21459;DHT22;10891;49.350;19.386;2023-04-29T09:41:39;16.50;99.90
21459;DHT22;10891;49.350;19.386;2023-04-29T09:44:07;16.90;99.90
21459;DHT22;10891;49.350;19.386;2023-04-29T09:46:36;17.20;99.90
21459;DHT22;10891;49.350;19.386;2023-04-29T09:49:21;17.40;99.90
21459;DHT22;10891;49.350;19.386;2023-04-29T09:51:54;17.60;99.90
21459;DHT22;10891;49.350;19.386;2023-04-29T09:54:22;17.60;99.90
21459;DHT22;10891;49.350;19.386;2023-04-29T09:56:50;17.30;99.90
21459;DHT22;10891;49.350;19.386;2023-04-29T09:59:17;17.30;99.90
21459;DHT22;10891;49.350;19.386;2023-04-29T10:01:47;17.50;99.90
21459;DHT22;10891;49.350;19.386;2023-04-29T10:04:18;17.50;99.90
21459;DHT22;10891;49.350;19.386;2023-04-29T10:06:49;17.50;99.90
21459;DHT22;10891;49.350;19.386;2023-04-29T10:09:18;17.70;99.90
21459;DHT22;10891;49.350;19.386;2023-04-29T10:11:46;17.60;99.90
21459;DHT22;10891;49.350;19.386;2023-04-29T10:14:16;17.20;99.90
21459;DHT22;10891;49.350;19.386;2023-04-29T10:16:49;17.30;99.90
21459;DHT22;10891;49.350;19.386;2023-04-29T10:19:25;17.40;99.90
21459;DHT22;10891;49.350;19.386;2023-04-29T10:21:53;17.60;99.90
21459;DHT22;10891;49.350;19.386;2023-04-29T10:24:21;17.40;99.90
21459;DHT22;10891;49.350;19.386;2023-04-29T10:26:50;17.00;99.90
21459;DHT22;10891;49.350;19.386;2023-04-29T10:29:18;16.80;99.90
21459;DHT22;10891;49.350;19.386;2023-04-29T10:31:48;16.80;99.90
21459;DHT22;10891;49.350;19.386;2023-04-29T10:34:16;16.90;99.90
21459;DHT22;10891;49.350;19.386;2023-04-29T10:36:46;16.80;99.90
21459;DHT22;10891;49.350;19.386;2023-04-29T10:39:25;16.80;99.90
21459;DHT22;10891;49.350;19.386;2023-04-29T10:41:57;16.60;99.90
21459;DHT22;10891;49.350;19.386;2023-04-29T10:44:24;16.50;99.90
21459;DHT22;10891;49.350;19.386;2023-04-29T10:47:19;16.50;99.90
21459;DHT22;10891;49.350;19.386;2023-04-29T10:50:01;16.60;99.90
21459;DHT22;10891;49.350;19.386;2023-04-29T10:52:50;16.70;99.90
21459;DHT22;10891;49.350;19.386;2023-04-29T10:55:17;17.10;99.90
21459;DHT22;10891;49.350;19.386;2023-04-29T10:57:44;17.40;99.90
21459;DHT22;10891;49.350;19.386;2023-04-29T11:00:21;17.50;99.90
21459;DHT22;10891;49.350;19.386;2023-04-29T11:02:49;17.80;99.90
21459;DHT22;10891;49.350;19.386;2023-04-29T11:05:28;17.90;99.90
21459;DHT22;10891;49.350;19.386;2023-04-29T11:08:09;17.80;99.90
21459;DHT22;10891;49.350;19.386;2023-04-29T11:10:40;17.60;99.90
21459;DHT22;10891;49.350;19.386;2023-04-29T11:13:23;17.50;99.90
21459;DHT22;10891;49.350;19.386;2023-04-29T11:15:51;16.90;99.90
21459;DHT22;10891;49.350;19.386;2023-04-29T11:18:18;16.80;99.90
21459;DHT22;10891;49.350;19.386;2023-04-29T11:21:10;16.70;99.90
21459;DHT22;10891;49.350;19.386;2023-04-29T11:23:40;17.10;99.90
21459;DHT22;10891;49.350;19.386;2023-04-29T11:26:07;17.60;99.90
21459;DHT22;10891;49.350;19.386;2023-04-29T11:28:34;17.70;99.90
21459;DHT22;10891;49.350;19.386;2023-04-29T11:31:01;17.70;99.90
21459;DHT22;10891;49.350;19.386;2023-04-29T11:33:31;18.10;99.90
21459;DHT22;10891;49.350;19.386;2023-04-29T11:35:58;18.40;99.90
21459;DHT22;10891;49.350;19.386;2023-04-29T11:38:26;19.10;99.50
21459;DHT22;10891;49.350;19.386;2023-04-29T11:40:55;19.20;99.60
21459;DHT22;10891;49.350;19.386;2023-04-29T11:43:23;19.10;98.90
21459;DHT22;10891;49.350;19.386;2023-04-29T11:45:52;19.10;99.40
21459;DHT22;10891;49.350;19.386;2023-04-29T11:48:19;18.80;99.90
21459;DHT22;10891;49.350;19.386;2023-04-29T11:50:48;19.40;99.40
21459;DHT22;10891;49.350;19.386;2023-04-29T11:53:16;19.50;99.20
21459;DHT22;10891;49.350;19.386;2023-04-29T11:55:45;19.50;99.40
21459;DHT22;10891;49.350;19.386;2023-04-29T11:58:14;19.40;99.20
21459;DHT22;10891;49.350;19.386;2023-04-29T12:00:42;19.20;99.70
21459;DHT22;10891;49.350;19.386;2023-04-29T12:03:12;18.80;99.10
21459;DHT22;10891;49.350;19.386;2023-04-29T12:05:45;18.40;99.80
21459;DHT22;10891;49.350;19.386;2023-04-29T12:08:12;18.70;99.80
21459;DHT22;10891;49.350;19.386;2023-04-29T12:10:40;18.80;99.70
21459;DHT22;10891;49.350;19.386;2023-04-29T12:13:07;18.70;99.90
21459;DHT22;10891;49.350;19.386;2023-04-29T12:15:35;18.30;99.90
21459;DHT22;10891;49.350;19.386;2023-04-29T12:18:03;18.10;99.90
21459;DHT22;10891;49.350;19.386;2023-04-29T12:20:30;17.80;99.90
21459;DHT22;10891;49.350;19.386;2023-04-29T12:23:10;18.00;99.90
21459;DHT22;10891;49.350;19.386;2023-04-29T12:25:38;17.80;99.90
21459;DHT22;10891;49.350;19.386;2023-04-29T12:28:10;17.50;99.90
21459;DHT22;10891;49.350;19.386;2023-04-29T12:30:39;17.00;99.90
21459;DHT22;10891;49.350;19.386;2023-04-29T12:33:07;17.00;99.90
21459;DHT22;10891;49.350;19.386;2023-04-29T12:35:36;16.60;99.90
21459;DHT22;10891;49.350;19.386;2023-04-29T12:38:03;16.30;99.90
21459;DHT22;10891;49.350;19.386;2023-04-29T12:40:31;16.20;99.90
21459;DHT22;10891;49.350;19.386;2023-04-29T12:43:06;16.10;99.90
21459;DHT22;10891;49.350;19.386;2023-04-29T12:45:33;15.90;99.90
21459;DHT22;10891;49.350;19.386;2023-04-29T12:48:03;15.60;99.90
21459;DHT22;10891;49.350;19.386;2023-04-29T12:50:31;15.50;99.90
21459;DHT22;10891;49.350;19.386;2023-04-29T12:52:59;15.20;99.90
21459;DHT22;10891;49.350;19.386;2023-04-29T12:55:26;15.10;99.90
21459;DHT22;10891;49.350;19.386;2023-04-29T12:57:53;14.80;99.90
21459;DHT22;10891;49.350;19.386;2023-04-29T13:00:20;14.50;99.90
21459;DHT22;10891;49.350;19.386;2023-04-29T13:02:48;14.20;99.90
21459;DHT22;10891;49.350;19.386;2023-04-29T13:05:17;13.80;99.90
21459;DHT22;10891;49.350;19.386;2023-04-29T13:07:44;13.60;99.90
21459;DHT22;10891;49.350;19.386;2023-04-29T13:10:12;13.50;99.90
21459;DHT22;10891;49.350;19.386;2023-04-29T13:12:39;13.30;99.90
21459;DHT22;10891;49.350;19.386;2023-04-29T13:15:07;13.20;99.90
21459;DHT22;10891;49.350;19.386;2023-04-29T13:17:36;13.00;99.90
21459;DHT22;10891;49.350;19.386;2023-04-29T13:20:04;12.80;99.90
21459;DHT22;10891;49.350;19.386;2023-04-29T13:22:33;12.60;99.90
21459;DHT22;10891;49.350;19.386;2023-04-29T13:25:02;12.50;99.90
21459;DHT22;10891;49.350;19.386;2023-04-29T13:27:30;12.30;99.90
21459;DHT22;10891;49.350;19.386;2023-04-29T13:29:57;12.10;99.90
21459;DHT22;10891;49.350;19.386;2023-04-29T13:32:24;12.00;99.90
21459;DHT22;10891;49.350;19.386;2023-04-29T13:34:52;12.00;99.90
21459;DHT22;10891;49.350;19.386;2023-04-29T13:37:19;12.00;99.90
21459;DHT22;10891;49.350;19.386;2023-04-29T13:39:47;12.10;99.90
21459;DHT22;10891;49.350;19.386;2023-04-29T13:42:14;12.20;99.90
21459;DHT22;10891;49.350;19.386;2023-04-29T13:44:41;12.30;99.90
21459;DHT22;10891;49.350;19.386;2023-04-29T13:47:10;12.40;99.90
21459;DHT22;10891;49.350;19.386;2023-04-29T13:49:38;12.70;99.90
21459;DHT22;10891;49.350;19.386;2023-04-29T13:52:06;13.10;99.90
21459;DHT22;10891;49.350;19.386;2023-04-29T13:54:33;13.40;99.90
21459;DHT22;10891;49.350;19.386;2023-04-29T13:57:02;13.70;99.90
21459;DHT22;10891;49.350;19.386;2023-04-29T13:59:30;14.10;99.90
21459;DHT22;10891;49.350;19.386;2023-04-29T14:01:57;14.40;99.90
21459;DHT22;10891;49.350;19.386;2023-04-29T14:04:26;14.70;99.90
21459;DHT22;10891;49.350;19.386;2023-04-29T14:06:54;14.80;99.90
21459;DHT22;10891;49.350;19.386;2023-04-29T14:09:22;15.10;99.90
21459;DHT22;10891;49.350;19.386;2023-04-29T14:11:49;15.30;99.90
21459;DHT22;10891;49.350;19.386;2023-04-29T14:14:18;15.70;99.90
21459;DHT22;10891;49.350;19.386;2023-04-29T14:16:45;15.80;99.90
21459;DHT22;10891;49.350;19.386;2023-04-29T14:19:12;15.60;99.90
21459;DHT22;10891;49.350;19.386;2023-04-29T14:21:39;15.80;99.90
21459;DHT22;10891;49.350;19.386;2023-04-29T14:24:06;15.90;99.90
21459;DHT22;10891;49.350;19.386;2023-04-29T14:26:33;15.50;99.90
21459;DHT22;10891;49.350;19.386;2023-04-29T14:29:01;15.40;99.90
21459;DHT22;10891;49.350;19.386;2023-04-29T14:31:33;15.00;99.90
21459;DHT22;10891;49.350;19.386;2023-04-29T14:34:00;14.70;99.90
21459;DHT22;10891;49.350;19.386;2023-04-29T14:36:27;14.60;99.90
21459;DHT22;10891;49.350;19.386;2023-04-29T14:38:55;14.40;99.90
21459;DHT22;10891;49.350;19.386;2023-04-29T14:41:22;14.30;99.90
21459;DHT22;10891;49.350;19.386;2023-04-29T14:43:49;13.90;99.90
21459;DHT22;10891;49.350;19.386;2023-04-29T14:46:16;13.70;99.90
21459;DHT22;10891;49.350;19.386;2023-04-29T14:48:45;13.80;99.90
21459;DHT22;10891;49.350;19.386;2023-04-29T14:51:12;13.90;99.90
21459;DHT22;10891;49.350;19.386;2023-04-29T14:53:39;14.10;99.90
21459;DHT22;10891;49.350;19.386;2023-04-29T14:56:07;13.90;99.90
21459;DHT22;10891;49.350;19.386;2023-04-29T14:58:36;13.90;99.90
21459;DHT22;10891;49.350;19.386;2023-04-29T15:01:03;13.80;99.90
21459;DHT22;10891;49.350;19.386;2023-04-29T15:03:30;13.80;99.90
21459;DHT22;10891;49.350;19.386;2023-04-29T15:06:00;13.60;99.90
21459;DHT22;10891;49.350;19.386;2023-04-29T15:08:28;13.80;99.90
21459;DHT22;10891;49.350;19.386;2023-04-29T15:10:55;13.90;99.90
21459;DHT22;10891;49.350;19.386;2023-04-29T15:13:22;14.10;99.90
21459;DHT22;10891;49.350;19.386;2023-04-29T15:15:49;14.50;99.90
21459;DHT22;10891;49.350;19.386;2023-04-29T15:18:16;15.00;99.90
21459;DHT22;10891;49.350;19.386;2023-04-29T15:20:44;14.80;99.90
21459;DHT22;10891;49.350;19.386;2023-04-29T15:23:13;14.80;99.90
21459;DHT22;10891;49.350;19.386;2023-04-29T15:25:40;15.60;99.90
21459;DHT22;10891;49.350;19.386;2023-04-29T15:28:07;16.50;99.90
21459;DHT22;10891;49.350;19.386;2023-04-29T15:30:34;18.70;99.90